sensor_id;sensor_type;location;lat;lon;timestamp;P1;durP1;ratioP1;P2;durP2;ratioP2
23088;SDS011;11713;48.506;8.966;2023-03-03T00:02:22;50.27;;;28.17;;
23088;SDS011;11713;48.506;8.966;2023-03-03T00:04:48;49.53;;;27.53;;
23088;SDS011;11713;48.506;8.966;2023-03-03T00:07:14;52.77;;;29.30;;
23088;SDS011;11713;48.506;8.966;2023-03-03T00:09:45;50.80;;;27.57;;
23088;SDS011;11713;48.506;8.966;2023-03-03T00:12:29;49.63;;;28.50;;
23088;SDS011;11713;48.506;8.966;2023-03-03T00:14:55;54.33;;;29.07;;
23088;SDS011;11713;48.506;8.966;2023-03-03T00:17:26;46.90;;;27.67;;
23088;SDS011;11713;48.506;8.966;2023-03-03T00:19:54;47.07;;;27.10;;
23088;SDS011;11713;48.506;8.966;2023-03-03T00:22:30;47.23;;;27.70;;
23088;SDS011;11713;48.506;8.966;2023-03-03T00:27:49;53.23;;;27.40;;
23088;SDS011;11713;48.506;8.966;2023-03-03T00:30:16;49.07;;;29.00;;
23088;SDS011;11713;48.506;8.966;2023-03-03T00:32:49;48.40;;;28.20;;
23088;SDS011;11713;48.506;8.966;2023-03-03T00:35:22;49.97;;;28.47;;
23088;SDS011;11713;48.506;8.966;2023-03-03T00:38:00;52.90;;;27.40;;
23088;SDS011;11713;48.506;8.966;2023-03-03T00:40:37;50.57;;;28.20;;
23088;SDS011;11713;48.506;8.966;2023-03-03T00:45:51;49.23;;;27.30;;
23088;SDS011;11713;48.506;8.966;2023-03-03T00:48:21;49.53;;;27.53;;
23088;SDS011;11713;48.506;8.966;2023-03-03T00:51:00;48.23;;;27.73;;
23088;SDS011;11713;48.506;8.966;2023-03-03T00:53:30;49.90;;;28.23;;
23088;SDS011;11713;48.506;8.966;2023-03-03T00:55:56;52.40;;;29.13;;
23088;SDS011;11713;48.506;8.966;2023-03-03T00:58:23;57.77;;;29.47;;
23088;SDS011;11713;48.506;8.966;2023-03-03T01:00:51;51.30;;;28.60;;
23088;SDS011;11713;48.506;8.966;2023-03-03T01:03:22;47.57;;;27.70;;
23088;SDS011;11713;48.506;8.966;2023-03-03T01:05:49;46.63;;;26.37;;
23088;SDS011;11713;48.506;8.966;2023-03-03T01:08:16;51.43;;;27.93;;
23088;SDS011;11713;48.506;8.966;2023-03-03T01:10:47;50.57;;;28.73;;
23088;SDS011;11713;48.506;8.966;2023-03-03T01:13:15;49.70;;;29.00;;
23088;SDS011;11713;48.506;8.966;2023-03-03T01:15:43;50.47;;;28.93;;
23088;SDS011;11713;48.506;8.966;2023-03-03T01:18:12;49.47;;;27.67;;
23088;SDS011;11713;48.506;8.966;2023-03-03T01:20:38;54.50;;;29.43;;
23088;SDS011;11713;48.506;8.966;2023-03-03T01:23:05;52.33;;;27.93;;
23088;SDS011;11713;48.506;8.966;2023-03-03T01:25:30;49.20;;;28.33;;
23088;SDS011;11713;48.506;8.966;2023-03-03T01:27:57;47.50;;;27.67;;
23088;SDS011;11713;48.506;8.966;2023-03-03T01:30:23;49.97;;;27.10;;
23088;SDS011;11713;48.506;8.966;2023-03-03T01:32:49;50.33;;;27.77;;
23088;SDS011;11713;48.506;8.966;2023-03-03T01:35:15;48.37;;;28.10;;
23088;SDS011;11713;48.506;8.966;2023-03-03T01:37:41;54.90;;;28.20;;
23088;SDS011;11713;48.506;8.966;2023-03-03T01:40:12;46.20;;;27.40;;
23088;SDS011;11713;48.506;8.966;2023-03-03T01:42:40;50.50;;;27.80;;
23088;SDS011;11713;48.506;8.966;2023-03-03T01:47:42;48.40;;;27.47;;
23088;SDS011;11713;48.506;8.966;2023-03-03T01:50:19;50.03;;;29.20;;
23088;SDS011;11713;48.506;8.966;2023-03-03T01:53:54;53.13;;;27.90;;
23088;SDS011;11713;48.506;8.966;2023-03-03T01:56:01;54.43;;;28.97;;
23088;SDS011;11713;48.506;8.966;2023-03-03T01:58:30;52.90;;;29.40;;
23088;SDS011;11713;48.506;8.966;2023-03-03T02:01:04;50.57;;;29.77;;
23088;SDS011;11713;48.506;8.966;2023-03-03T02:03:38;52.67;;;28.47;;
23088;SDS011;11713;48.506;8.966;2023-03-03T02:06:05;51.47;;;28.57;;
23088;SDS011;11713;48.506;8.966;2023-03-03T02:11:39;49.77;;;27.30;;
23088;SDS011;11713;48.506;8.966;2023-03-03T02:14:07;47.70;;;26.30;;
23088;SDS011;11713;48.506;8.966;2023-03-03T02:16:34;46.77;;;27.47;;
23088;SDS011;11713;48.506;8.966;2023-03-03T02:19:00;53.73;;;28.70;;
23088;SDS011;11713;48.506;8.966;2023-03-03T02:21:26;51.70;;;27.80;;
23088;SDS011;11713;48.506;8.966;2023-03-03T02:26:25;52.50;;;27.53;;
23088;SDS011;11713;48.506;8.966;2023-03-03T02:28:59;56.23;;;28.77;;
23088;SDS011;11713;48.506;8.966;2023-03-03T02:31:27;49.77;;;27.63;;
23088;SDS011;11713;48.506;8.966;2023-03-03T02:33:54;51.40;;;26.83;;
23088;SDS011;11713;48.506;8.966;2023-03-03T02:36:22;49.83;;;27.67;;
23088;SDS011;11713;48.506;8.966;2023-03-03T02:38:52;49.77;;;26.93;;
23088;SDS011;11713;48.506;8.966;2023-03-03T02:44:17;44.20;;;25.63;;
23088;SDS011;11713;48.506;8.966;2023-03-03T02:46:48;48.63;;;26.77;;
23088;SDS011;11713;48.506;8.966;2023-03-03T02:49:18;48.83;;;27.13;;
23088;SDS011;11713;48.506;8.966;2023-03-03T02:51:46;47.13;;;27.30;;
23088;SDS011;11713;48.506;8.966;2023-03-03T02:54:12;46.37;;;25.70;;
23088;SDS011;11713;48.506;8.966;2023-03-03T02:56:40;50.57;;;28.10;;
23088;SDS011;11713;48.506;8.966;2023-03-03T02:59:07;52.50;;;28.63;;
23088;SDS011;11713;48.506;8.966;2023-03-03T03:01:40;49.53;;;26.67;;
23088;SDS011;11713;48.506;8.966;2023-03-03T03:04:12;52.90;;;28.23;;
23088;SDS011;11713;48.506;8.966;2023-03-03T03:06:42;48.43;;;28.50;;
23088;SDS011;11713;48.506;8.966;2023-03-03T03:09:09;48.30;;;27.70;;
23088;SDS011;11713;48.506;8.966;2023-03-03T03:11:36;54.70;;;29.10;;
23088;SDS011;11713;48.506;8.966;2023-03-03T03:14:03;44.83;;;27.17;;
23088;SDS011;11713;48.506;8.966;2023-03-03T03:16:31;54.23;;;28.73;;
23088;SDS011;11713;48.506;8.966;2023-03-03T03:18:58;50.63;;;29.40;;
23088;SDS011;11713;48.506;8.966;2023-03-03T03:21:25;59.57;;;29.97;;
23088;SDS011;11713;48.506;8.966;2023-03-03T03:23:52;51.87;;;28.60;;
23088;SDS011;11713;48.506;8.966;2023-03-03T03:26:17;50.83;;;27.93;;
23088;SDS011;11713;48.506;8.966;2023-03-03T03:28:47;54.00;;;28.20;;
23088;SDS011;11713;48.506;8.966;2023-03-03T03:31:14;52.83;;;29.43;;
23088;SDS011;11713;48.506;8.966;2023-03-03T03:33:41;51.97;;;27.93;;
23088;SDS011;11713;48.506;8.966;2023-03-03T03:36:08;56.00;;;29.87;;
23088;SDS011;11713;48.506;8.966;2023-03-03T03:38:35;55.80;;;28.80;;
23088;SDS011;11713;48.506;8.966;2023-03-03T03:41:03;53.13;;;28.60;;
23088;SDS011;11713;48.506;8.966;2023-03-03T03:43:29;51.10;;;29.23;;
23088;SDS011;11713;48.506;8.966;2023-03-03T03:45:57;51.93;;;29.77;;
23088;SDS011;11713;48.506;8.966;2023-03-03T03:48:24;57.00;;;29.23;;
23088;SDS011;11713;48.506;8.966;2023-03-03T03:50:50;55.90;;;30.63;;
23088;SDS011;11713;48.506;8.966;2023-03-03T03:53:17;54.03;;;29.13;;
23088;SDS011;11713;48.506;8.966;2023-03-03T03:55:44;55.17;;;30.40;;
23088;SDS011;11713;48.506;8.966;2023-03-03T03:58:15;53.67;;;29.40;;
23088;SDS011;11713;48.506;8.966;2023-03-03T04:00:46;53.30;;;28.30;;
23088;SDS011;11713;48.506;8.966;2023-03-03T04:03:12;53.60;;;30.03;;
23088;SDS011;11713;48.506;8.966;2023-03-03T04:05:40;52.90;;;28.97;;
23088;SDS011;11713;48.506;8.966;2023-03-03T04:08:07;53.47;;;29.43;;
23088;SDS011;11713;48.506;8.966;2023-03-03T04:10:33;52.40;;;29.57;;
23088;SDS011;11713;48.506;8.966;2023-03-03T04:12:59;51.53;;;28.90;;
23088;SDS011;11713;48.506;8.966;2023-03-03T04:15:26;50.03;;;26.97;;
23088;SDS011;11713;48.506;8.966;2023-03-03T04:17:53;50.13;;;27.43;;
23088;SDS011;11713;48.506;8.966;2023-03-03T04:20:19;48.57;;;27.97;;
23088;SDS011;11713;48.506;8.966;2023-03-03T04:22:45;46.23;;;28.07;;
23088;SDS011;11713;48.506;8.966;2023-03-03T04:25:14;50.23;;;27.03;;
23088;SDS011;11713;48.506;8.966;2023-03-03T04:27:43;48.93;;;27.73;;
23088;SDS011;11713;48.506;8.966;2023-03-03T04:30:12;47.13;;;25.70;;
23088;SDS011;11713;48.506;8.966;2023-03-03T04:32:41;45.50;;;26.37;;
23088;SDS011;11713;48.506;8.966;2023-03-03T04:35:09;45.33;;;25.67;;
23088;SDS011;11713;48.506;8.966;2023-03-03T04:37:39;53.37;;;28.73;;
23088;SDS011;11713;48.506;8.966;2023-03-03T04:40:06;53.53;;;27.73;;
23088;SDS011;11713;48.506;8.966;2023-03-03T04:42:33;51.90;;;28.27;;
23088;SDS011;11713;48.506;8.966;2023-03-03T04:45:00;49.33;;;27.77;;
23088;SDS011;11713;48.506;8.966;2023-03-03T04:47:27;75.57;;;38.00;;
23088;SDS011;11713;48.506;8.966;2023-03-03T04:49:53;48.00;;;28.37;;
23088;SDS011;11713;48.506;8.966;2023-03-03T04:52:19;48.47;;;26.53;;
23088;SDS011;11713;48.506;8.966;2023-03-03T04:54:46;49.27;;;27.00;;
23088;SDS011;11713;48.506;8.966;2023-03-03T04:57:11;52.93;;;28.00;;
23088;SDS011;11713;48.506;8.966;2023-03-03T04:59:37;51.77;;;29.03;;
23088;SDS011;11713;48.506;8.966;2023-03-03T05:02:03;50.40;;;28.03;;
23088;SDS011;11713;48.506;8.966;2023-03-03T05:04:29;52.70;;;27.53;;
23088;SDS011;11713;48.506;8.966;2023-03-03T05:06:55;45.77;;;26.40;;
23088;SDS011;11713;48.506;8.966;2023-03-03T05:09:22;50.73;;;27.97;;
23088;SDS011;11713;48.506;8.966;2023-03-03T05:11:47;52.10;;;28.03;;
23088;SDS011;11713;48.506;8.966;2023-03-03T05:14:13;54.27;;;28.87;;
23088;SDS011;11713;48.506;8.966;2023-03-03T05:16:39;48.57;;;27.67;;
23088;SDS011;11713;48.506;8.966;2023-03-03T05:19:05;47.73;;;26.03;;
23088;SDS011;11713;48.506;8.966;2023-03-03T05:21:30;48.83;;;27.17;;
23088;SDS011;11713;48.506;8.966;2023-03-03T05:23:56;53.47;;;28.30;;
23088;SDS011;11713;48.506;8.966;2023-03-03T05:26:22;46.90;;;26.27;;
23088;SDS011;11713;48.506;8.966;2023-03-03T05:28:50;47.90;;;26.47;;
23088;SDS011;11713;48.506;8.966;2023-03-03T05:31:16;46.83;;;27.17;;
23088;SDS011;11713;48.506;8.966;2023-03-03T05:33:42;49.30;;;27.37;;
23088;SDS011;11713;48.506;8.966;2023-03-03T05:36:08;50.20;;;28.20;;
23088;SDS011;11713;48.506;8.966;2023-03-03T05:38:34;53.53;;;29.17;;
23088;SDS011;11713;48.506;8.966;2023-03-03T05:41:00;52.00;;;27.77;;
23088;SDS011;11713;48.506;8.966;2023-03-03T05:43:26;52.17;;;28.10;;
23088;SDS011;11713;48.506;8.966;2023-03-03T05:45:55;49.13;;;27.57;;
23088;SDS011;11713;48.506;8.966;2023-03-03T05:48:22;47.50;;;27.00;;
23088;SDS011;11713;48.506;8.966;2023-03-03T05:50:48;52.13;;;28.87;;
23088;SDS011;11713;48.506;8.966;2023-03-03T05:53:14;51.63;;;27.83;;
23088;SDS011;11713;48.506;8.966;2023-03-03T05:55:39;47.87;;;26.83;;
23088;SDS011;11713;48.506;8.966;2023-03-03T05:58:05;52.23;;;28.20;;
23088;SDS011;11713;48.506;8.966;2023-03-03T06:00:31;52.80;;;28.47;;
23088;SDS011;11713;48.506;8.966;2023-03-03T06:02:57;55.90;;;29.13;;
23088;SDS011;11713;48.506;8.966;2023-03-03T06:05:23;49.83;;;28.17;;
23088;SDS011;11713;48.506;8.966;2023-03-03T06:07:49;44.87;;;26.37;;
23088;SDS011;11713;48.506;8.966;2023-03-03T06:10:15;49.23;;;27.13;;
23088;SDS011;11713;48.506;8.966;2023-03-03T06:12:45;46.93;;;26.17;;
23088;SDS011;11713;48.506;8.966;2023-03-03T06:15:10;49.10;;;26.83;;
23088;SDS011;11713;48.506;8.966;2023-03-03T06:17:36;51.23;;;26.47;;
23088;SDS011;11713;48.506;8.966;2023-03-03T06:20:03;49.27;;;27.27;;
23088;SDS011;11713;48.506;8.966;2023-03-03T06:22:29;48.70;;;26.10;;
23088;SDS011;11713;48.506;8.966;2023-03-03T06:24:55;47.57;;;26.33;;
23088;SDS011;11713;48.506;8.966;2023-03-03T06:27:20;46.90;;;27.33;;
23088;SDS011;11713;48.506;8.966;2023-03-03T06:29:46;46.73;;;25.70;;
23088;SDS011;11713;48.506;8.966;2023-03-03T06:32:12;49.47;;;27.07;;
23088;SDS011;11713;48.506;8.966;2023-03-03T06:34:38;51.67;;;28.30;;
23088;SDS011;11713;48.506;8.966;2023-03-03T06:37:04;49.00;;;27.63;;
23088;SDS011;11713;48.506;8.966;2023-03-03T06:39:30;45.50;;;26.40;;
23088;SDS011;11713;48.506;8.966;2023-03-03T06:41:55;48.53;;;26.50;;
23088;SDS011;11713;48.506;8.966;2023-03-03T06:44:21;52.43;;;28.97;;
23088;SDS011;11713;48.506;8.966;2023-03-03T06:46:47;50.53;;;27.50;;
23088;SDS011;11713;48.506;8.966;2023-03-03T06:49:13;50.57;;;28.73;;
23088;SDS011;11713;48.506;8.966;2023-03-03T06:51:39;50.77;;;27.43;;
23088;SDS011;11713;48.506;8.966;2023-03-03T06:54:16;54.07;;;29.30;;
23088;SDS011;11713;48.506;8.966;2023-03-03T06:56:44;47.30;;;27.33;;
23088;SDS011;11713;48.506;8.966;2023-03-03T06:59:14;48.43;;;27.40;;
23088;SDS011;11713;48.506;8.966;2023-03-03T07:01:46;47.50;;;26.83;;
23088;SDS011;11713;48.506;8.966;2023-03-03T07:07:10;52.47;;;29.07;;
23088;SDS011;11713;48.506;8.966;2023-03-03T07:09:43;57.23;;;32.13;;
23088;SDS011;11713;48.506;8.966;2023-03-03T07:12:11;51.70;;;30.60;;
23088;SDS011;11713;48.506;8.966;2023-03-03T07:14:44;51.10;;;28.73;;
23088;SDS011;11713;48.506;8.966;2023-03-03T07:17:18;54.43;;;29.77;;
23088;SDS011;11713;48.506;8.966;2023-03-03T07:19:45;56.37;;;30.07;;
23088;SDS011;11713;48.506;8.966;2023-03-03T07:24:45;52.00;;;29.23;;
23088;SDS011;11713;48.506;8.966;2023-03-03T07:27:26;50.73;;;28.13;;
23088;SDS011;11713;48.506;8.966;2023-03-03T07:29:54;50.30;;;28.97;;
23088;SDS011;11713;48.506;8.966;2023-03-03T07:32:46;45.83;;;26.77;;
23088;SDS011;11713;48.506;8.966;2023-03-03T07:38:09;50.87;;;27.07;;
23088;SDS011;11713;48.506;8.966;2023-03-03T07:40:56;52.00;;;27.50;;
23088;SDS011;11713;48.506;8.966;2023-03-03T07:43:43;50.90;;;28.63;;
23088;SDS011;11713;48.506;8.966;2023-03-03T07:49:23;54.17;;;28.93;;
23088;SDS011;11713;48.506;8.966;2023-03-03T07:51:58;52.37;;;28.67;;
23088;SDS011;11713;48.506;8.966;2023-03-03T07:54:31;50.77;;;28.80;;
23088;SDS011;11713;48.506;8.966;2023-03-03T07:57:13;48.93;;;27.83;;
23088;SDS011;11713;48.506;8.966;2023-03-03T07:59:48;52.97;;;29.47;;
23088;SDS011;11713;48.506;8.966;2023-03-03T08:04:52;46.40;;;27.67;;
23088;SDS011;11713;48.506;8.966;2023-03-03T08:07:19;48.60;;;27.80;;
23088;SDS011;11713;48.506;8.966;2023-03-03T08:09:57;49.37;;;28.40;;
23088;SDS011;11713;48.506;8.966;2023-03-03T08:12:40;52.80;;;29.33;;
23088;SDS011;11713;48.506;8.966;2023-03-03T08:15:11;46.90;;;28.37;;
23088;SDS011;11713;48.506;8.966;2023-03-03T08:17:44;51.00;;;28.90;;
23088;SDS011;11713;48.506;8.966;2023-03-03T08:23:01;42.60;;;25.23;;
23088;SDS011;11713;48.506;8.966;2023-03-03T08:25:31;47.03;;;26.03;;
23088;SDS011;11713;48.506;8.966;2023-03-03T08:28:01;43.63;;;26.90;;
23088;SDS011;11713;48.506;8.966;2023-03-03T08:30:28;45.17;;;25.90;;
23088;SDS011;11713;48.506;8.966;2023-03-03T08:32:56;45.67;;;26.37;;
23088;SDS011;11713;48.506;8.966;2023-03-03T08:35:26;44.67;;;25.77;;
23088;SDS011;11713;48.506;8.966;2023-03-03T08:37:55;46.60;;;26.10;;
23088;SDS011;11713;48.506;8.966;2023-03-03T08:40:29;46.13;;;25.97;;
23088;SDS011;11713;48.506;8.966;2023-03-03T08:42:55;42.87;;;25.17;;
23088;SDS011;11713;48.506;8.966;2023-03-03T08:45:24;41.77;;;25.67;;
23088;SDS011;11713;48.506;8.966;2023-03-03T08:47:51;48.50;;;28.60;;
23088;SDS011;11713;48.506;8.966;2023-03-03T08:50:18;49.30;;;28.87;;
23088;SDS011;11713;48.506;8.966;2023-03-03T08:52:47;49.77;;;27.60;;
23088;SDS011;11713;48.506;8.966;2023-03-03T08:55:13;49.47;;;27.63;;
23088;SDS011;11713;48.506;8.966;2023-03-03T08:57:41;48.93;;;28.23;;
23088;SDS011;11713;48.506;8.966;2023-03-03T09:00:08;49.10;;;29.07;;
23088;SDS011;11713;48.506;8.966;2023-03-03T09:02:38;49.27;;;28.53;;
23088;SDS011;11713;48.506;8.966;2023-03-03T09:05:05;46.73;;;27.47;;
23088;SDS011;11713;48.506;8.966;2023-03-03T09:07:46;48.13;;;28.27;;
23088;SDS011;11713;48.506;8.966;2023-03-03T09:10:15;47.33;;;27.17;;
23088;SDS011;11713;48.506;8.966;2023-03-03T09:12:46;49.27;;;27.80;;
23088;SDS011;11713;48.506;8.966;2023-03-03T09:15:16;47.03;;;26.60;;
23088;SDS011;11713;48.506;8.966;2023-03-03T09:17:43;45.70;;;26.90;;
23088;SDS011;11713;48.506;8.966;2023-03-03T09:22:48;49.63;;;27.33;;
23088;SDS011;11713;48.506;8.966;2023-03-03T09:25:22;44.33;;;26.20;;
23088;SDS011;11713;48.506;8.966;2023-03-03T09:27:56;45.40;;;26.77;;
23088;SDS011;11713;48.506;8.966;2023-03-03T09:30:39;48.60;;;27.53;;
23088;SDS011;11713;48.506;8.966;2023-03-03T09:33:22;47.50;;;26.73;;
23088;SDS011;11713;48.506;8.966;2023-03-03T09:36:23;46.93;;;26.80;;
23088;SDS011;11713;48.506;8.966;2023-03-03T09:39:10;46.83;;;27.20;;
23088;SDS011;11713;48.506;8.966;2023-03-03T09:44:29;45.20;;;26.93;;
23088;SDS011;11713;48.506;8.966;2023-03-03T09:58:28;42.60;;;26.67;;
23088;SDS011;11713;48.506;8.966;2023-03-03T10:18:18;47.33;;;27.13;;
23088;SDS011;11713;48.506;8.966;2023-03-03T10:20:56;43.60;;;25.90;;
23088;SDS011;11713;48.506;8.966;2023-03-03T10:23:51;42.77;;;26.60;;
23088;SDS011;11713;48.506;8.966;2023-03-03T10:29:26;44.00;;;25.83;;
23088;SDS011;11713;48.506;8.966;2023-03-03T10:37:53;47.83;;;27.27;;
23088;SDS011;11713;48.506;8.966;2023-03-03T10:43:49;42.77;;;26.67;;
23088;SDS011;11713;48.506;8.966;2023-03-03T11:08:55;44.30;;;25.43;;
23088;SDS011;11713;48.506;8.966;2023-03-03T11:14:25;43.23;;;27.37;;
23088;SDS011;11713;48.506;8.966;2023-03-03T11:28:27;41.57;;;26.57;;
23088;SDS011;11713;48.506;8.966;2023-03-03T11:34:28;40.17;;;25.47;;
23088;SDS011;11713;48.506;8.966;2023-03-03T11:36:54;40.77;;;27.10;;
23088;SDS011;11713;48.506;8.966;2023-03-03T11:39:46;44.83;;;26.83;;
23088;SDS011;11713;48.506;8.966;2023-03-03T11:42:25;40.00;;;25.30;;
23088;SDS011;11713;48.506;8.966;2023-03-03T11:45:02;42.33;;;26.97;;
23088;SDS011;11713;48.506;8.966;2023-03-03T11:48:11;42.37;;;26.13;;
23088;SDS011;11713;48.506;8.966;2023-03-03T11:51:02;40.57;;;25.80;;
23088;SDS011;11713;48.506;8.966;2023-03-03T11:56:21;41.17;;;26.53;;
23088;SDS011;11713;48.506;8.966;2023-03-03T12:01:56;40.03;;;26.90;;
23088;SDS011;11713;48.506;8.966;2023-03-03T12:04:53;41.80;;;26.57;;
23088;SDS011;11713;48.506;8.966;2023-03-03T12:07:38;39.70;;;26.17;;
23088;SDS011;11713;48.506;8.966;2023-03-03T12:15:32;40.33;;;25.40;;
23088;SDS011;11713;48.506;8.966;2023-03-03T12:24:04;38.73;;;25.70;;
23088;SDS011;11713;48.506;8.966;2023-03-03T12:26:44;42.53;;;26.00;;
23088;SDS011;11713;48.506;8.966;2023-03-03T12:41:02;38.97;;;25.70;;
23088;SDS011;11713;48.506;8.966;2023-03-03T12:43:54;42.10;;;26.87;;
23088;SDS011;11713;48.506;8.966;2023-03-03T12:49:25;40.07;;;26.40;;
23088;SDS011;11713;48.506;8.966;2023-03-03T12:52:08;42.43;;;25.33;;
23088;SDS011;11713;48.506;8.966;2023-03-03T12:57:33;37.70;;;26.00;;
23088;SDS011;11713;48.506;8.966;2023-03-03T13:00:12;38.23;;;25.60;;
23088;SDS011;11713;48.506;8.966;2023-03-03T13:03:12;42.70;;;25.90;;
23088;SDS011;11713;48.506;8.966;2023-03-03T13:06:00;40.20;;;27.10;;
23088;SDS011;11713;48.506;8.966;2023-03-03T13:08:45;36.83;;;24.63;;
23088;SDS011;11713;48.506;8.966;2023-03-03T13:11:32;41.23;;;27.17;;
23088;SDS011;11713;48.506;8.966;2023-03-03T13:17:14;39.60;;;25.77;;
23088;SDS011;11713;48.506;8.966;2023-03-03T13:19:48;41.93;;;26.37;;
23088;SDS011;11713;48.506;8.966;2023-03-03T13:27:51;37.50;;;25.27;;
23088;SDS011;11713;48.506;8.966;2023-03-03T13:30:26;36.60;;;24.80;;
23088;SDS011;11713;48.506;8.966;2023-03-03T13:32:59;37.90;;;26.07;;
23088;SDS011;11713;48.506;8.966;2023-03-03T13:35:40;41.07;;;26.37;;
23088;SDS011;11713;48.506;8.966;2023-03-03T13:38:30;37.43;;;25.50;;
23088;SDS011;11713;48.506;8.966;2023-03-03T13:41:09;38.80;;;25.03;;
23088;SDS011;11713;48.506;8.966;2023-03-03T13:43:54;38.00;;;25.83;;
23088;SDS011;11713;48.506;8.966;2023-03-03T14:08:51;34.63;;;21.87;;
23088;SDS011;11713;48.506;8.966;2023-03-03T14:17:14;31.30;;;22.50;;
23088;SDS011;11713;48.506;8.966;2023-03-03T14:22:44;30.07;;;19.77;;
23088;SDS011;11713;48.506;8.966;2023-03-03T14:28:40;35.37;;;21.80;;
23088;SDS011;11713;48.506;8.966;2023-03-03T14:31:41;32.03;;;21.20;;
23088;SDS011;11713;48.506;8.966;2023-03-03T14:40:00;31.23;;;20.87;;
23088;SDS011;11713;48.506;8.966;2023-03-03T14:42:37;26.50;;;19.97;;
23088;SDS011;11713;48.506;8.966;2023-03-03T14:48:18;33.73;;;21.30;;
23088;SDS011;11713;48.506;8.966;2023-03-03T14:50:51;33.43;;;21.47;;
23088;SDS011;11713;48.506;8.966;2023-03-03T14:53:22;31.07;;;20.40;;
23088;SDS011;11713;48.506;8.966;2023-03-03T14:58:52;30.20;;;18.73;;
23088;SDS011;11713;48.506;8.966;2023-03-03T15:06:48;27.60;;;19.17;;
23088;SDS011;11713;48.506;8.966;2023-03-03T15:09:24;29.13;;;19.97;;
23088;SDS011;11713;48.506;8.966;2023-03-03T15:12:21;28.27;;;19.07;;
23088;SDS011;11713;48.506;8.966;2023-03-03T15:15:01;27.83;;;19.37;;
23088;SDS011;11713;48.506;8.966;2023-03-03T15:17:37;28.73;;;18.60;;
23088;SDS011;11713;48.506;8.966;2023-03-03T15:25:57;27.33;;;19.13;;
23088;SDS011;11713;48.506;8.966;2023-03-03T15:34:45;27.33;;;19.97;;
23088;SDS011;11713;48.506;8.966;2023-03-03T15:40:29;29.00;;;18.80;;
23088;SDS011;11713;48.506;8.966;2023-03-03T15:45:44;30.27;;;19.17;;
23088;SDS011;11713;48.506;8.966;2023-03-03T15:51:05;25.70;;;17.90;;
23088;SDS011;11713;48.506;8.966;2023-03-03T16:02:17;28.37;;;19.13;;
23088;SDS011;11713;48.506;8.966;2023-03-03T16:04:50;30.00;;;19.83;;
23088;SDS011;11713;48.506;8.966;2023-03-03T16:27:31;29.30;;;19.10;;
23088;SDS011;11713;48.506;8.966;2023-03-03T16:30:22;30.87;;;19.00;;
23088;SDS011;11713;48.506;8.966;2023-03-03T16:33:12;29.70;;;19.20;;
23088;SDS011;11713;48.506;8.966;2023-03-03T16:35:54;35.13;;;22.50;;
23088;SDS011;11713;48.506;8.966;2023-03-03T16:40:59;28.63;;;19.90;;
23088;SDS011;11713;48.506;8.966;2023-03-03T16:46:22;28.57;;;18.50;;
23088;SDS011;11713;48.506;8.966;2023-03-03T16:52:02;26.00;;;16.30;;
23088;SDS011;11713;48.506;8.966;2023-03-03T16:54:46;24.20;;;16.37;;
23088;SDS011;11713;48.506;8.966;2023-03-03T16:59:50;28.67;;;19.90;;
23088;SDS011;11713;48.506;8.966;2023-03-03T17:05:11;29.17;;;19.57;;
23088;SDS011;11713;48.506;8.966;2023-03-03T17:08:20;29.53;;;19.27;;
23088;SDS011;11713;48.506;8.966;2023-03-03T17:10:49;30.73;;;19.93;;
23088;SDS011;11713;48.506;8.966;2023-03-03T17:17:04;30.10;;;18.40;;
23088;SDS011;11713;48.506;8.966;2023-03-03T17:19:23;29.23;;;18.07;;
23088;SDS011;11713;48.506;8.966;2023-03-03T17:25:04;33.17;;;18.63;;
23088;SDS011;11713;48.506;8.966;2023-03-03T17:30:29;25.63;;;18.13;;
23088;SDS011;11713;48.506;8.966;2023-03-03T17:33:34;33.73;;;21.43;;
23088;SDS011;11713;48.506;8.966;2023-03-03T17:36:31;32.13;;;21.77;;
23088;SDS011;11713;48.506;8.966;2023-03-03T17:42:03;30.33;;;19.73;;
23088;SDS011;11713;48.506;8.966;2023-03-03T17:55:25;32.47;;;21.00;;
23088;SDS011;11713;48.506;8.966;2023-03-03T18:11:48;33.57;;;20.83;;
23088;SDS011;11713;48.506;8.966;2023-03-03T18:17:05;35.90;;;20.87;;
23088;SDS011;11713;48.506;8.966;2023-03-03T18:19:57;33.57;;;20.47;;
23088;SDS011;11713;48.506;8.966;2023-03-03T18:25:16;37.67;;;21.23;;
23088;SDS011;11713;48.506;8.966;2023-03-03T18:28:36;39.87;;;24.53;;
23088;SDS011;11713;48.506;8.966;2023-03-03T18:31:00;46.87;;;26.57;;
23088;SDS011;11713;48.506;8.966;2023-03-03T18:33:42;39.10;;;24.07;;
23088;SDS011;11713;48.506;8.966;2023-03-03T18:39:00;37.30;;;23.37;;
23088;SDS011;11713;48.506;8.966;2023-03-03T18:41:31;43.70;;;25.93;;
23088;SDS011;11713;48.506;8.966;2023-03-03T18:47:02;39.70;;;24.07;;
23088;SDS011;11713;48.506;8.966;2023-03-03T18:52:29;42.23;;;23.70;;
23088;SDS011;11713;48.506;8.966;2023-03-03T18:57:34;39.80;;;23.47;;
23088;SDS011;11713;48.506;8.966;2023-03-03T19:00:13;40.77;;;24.60;;
23088;SDS011;11713;48.506;8.966;2023-03-03T19:02:52;38.63;;;22.67;;
23088;SDS011;11713;48.506;8.966;2023-03-03T19:05:26;34.93;;;21.40;;
23088;SDS011;11713;48.506;8.966;2023-03-03T19:16:09;37.07;;;22.93;;
23088;SDS011;11713;48.506;8.966;2023-03-03T19:21:32;43.77;;;24.73;;
23088;SDS011;11713;48.506;8.966;2023-03-03T19:30:38;42.00;;;23.93;;
23088;SDS011;11713;48.506;8.966;2023-03-03T19:38:32;52.90;;;30.43;;
23088;SDS011;11713;48.506;8.966;2023-03-03T19:41:23;59.70;;;33.47;;
23088;SDS011;11713;48.506;8.966;2023-03-03T19:54:43;92.17;;;47.10;;
23088;SDS011;11713;48.506;8.966;2023-03-03T19:57:23;103.17;;;51.40;;
23088;SDS011;11713;48.506;8.966;2023-03-03T20:00:09;84.90;;;44.23;;
23088;SDS011;11713;48.506;8.966;2023-03-03T20:08:41;91.03;;;44.77;;
23088;SDS011;11713;48.506;8.966;2023-03-03T20:14:41;56.43;;;31.30;;
23088;SDS011;11713;48.506;8.966;2023-03-03T20:17:20;47.13;;;27.47;;
23088;SDS011;11713;48.506;8.966;2023-03-03T20:30:52;49.17;;;27.63;;
23088;SDS011;11713;48.506;8.966;2023-03-03T20:33:38;48.87;;;28.60;;
23088;SDS011;11713;48.506;8.966;2023-03-03T20:42:17;69.00;;;36.20;;
23088;SDS011;11713;48.506;8.966;2023-03-03T20:47:09;63.50;;;37.70;;
23088;SDS011;11713;48.506;8.966;2023-03-03T20:49:52;56.73;;;34.37;;
23088;SDS011;11713;48.506;8.966;2023-03-03T20:55:18;50.30;;;31.33;;
23088;SDS011;11713;48.506;8.966;2023-03-03T20:57:57;53.67;;;33.17;;
23088;SDS011;11713;48.506;8.966;2023-03-03T21:00:33;61.83;;;34.23;;
23088;SDS011;11713;48.506;8.966;2023-03-03T21:03:14;55.87;;;33.70;;
23088;SDS011;11713;48.506;8.966;2023-03-03T21:05:56;61.37;;;35.37;;
23088;SDS011;11713;48.506;8.966;2023-03-03T21:13:56;56.37;;;33.13;;
23088;SDS011;11713;48.506;8.966;2023-03-03T21:18:59;58.07;;;32.70;;
23088;SDS011;11713;48.506;8.966;2023-03-03T21:21:35;52.90;;;31.03;;
23088;SDS011;11713;48.506;8.966;2023-03-03T21:24:01;59.33;;;31.47;;
23088;SDS011;11713;48.506;8.966;2023-03-03T21:34:23;50.93;;;29.40;;
23088;SDS011;11713;48.506;8.966;2023-03-03T21:36:53;49.90;;;28.43;;
23088;SDS011;11713;48.506;8.966;2023-03-03T21:44:37;64.20;;;35.47;;
23088;SDS011;11713;48.506;8.966;2023-03-03T21:47:07;65.37;;;36.07;;
23088;SDS011;11713;48.506;8.966;2023-03-03T21:49:39;57.40;;;31.80;;
23088;SDS011;11713;48.506;8.966;2023-03-03T21:52:07;57.07;;;32.20;;